Heighington, United Kingdom
Current Conditions -  °F | °C
As of 10:50 AM on Wednesday 22 Oct 2014 (Local Time) from EGXW Reporting Station
Clear Clear  
Wind Chill: 11°   Ceiling: Unl
Heat Index: 11°   Visibility: 6mi
Dew Point:   Wind: 10mph
Humidity: 71%   Direction: 280°W
Pressure: 30.18"   Gusts: NA
Location:  53.21°N, 0.46°W
Report Text: EGXW 220950Z 28009KT CAVOK 11/06 Q1022 BLU NOSIG
Loading
Personal Weather Stations






























Interactive Weather Map
Tropical Storm Tracking
New forecast layout! Learn more

10-Day Weather Forecast

Advertisements
Track Severe Weather on mobile